Time;durP1;ratioP1;P1;durP2;ratioP2;P2;SDS_P1;SDS_P2;PMS_P1;PMS_P2;Temp;Humidity;BMP_temperature;BMP_pressure;BME280_temperature;BME280_humidity;BME280_pressure;Samples;Min_cycle;Max_cycle;Signal;HPM_P1;HPM_P2
2023/08/12 00:00:11;;;;;;;1.88;1.70;;;27.80;46.60;;;;;;5150658;27;45314;-72
2023/08/12 00:02:39;;;;;;;2.00;1.90;;;27.80;46.70;;;;;;5150136;27;45299;-70
2023/08/12 00:05:06;;;;;;;1.90;1.70;;;27.80;46.70;;;;;;5149857;27;46475;-70
2023/08/12 00:07:33;;;;;;;1.80;1.70;;;27.80;46.70;;;;;;5150024;27;45294;-71
2023/08/12 00:10:00;;;;;;;1.83;1.73;;;27.80;46.60;;;;;;5149821;27;45432;-71
2023/08/12 00:12:27;;;;;;;1.80;1.70;;;27.80;46.70;;;;;;5149191;27;45375;-71
2023/08/12 00:14:54;;;;;;;1.90;1.80;;;27.80;46.70;;;;;;5149644;27;45526;-70
2023/08/12 00:17:22;;;;;;;2.10;1.90;;;27.80;46.70;;;;;;5149957;27;45252;-70
2023/08/12 00:19:49;;;;;;;2.25;1.85;;;27.70;47.30;;;;;;5149753;27;45392;-71
2023/08/12 00:22:16;;;;;;;2.00;1.80;;;27.70;46.60;;;;;;5150056;27;45356;-71
2023/08/12 00:24:42;;;;;;;2.05;1.85;;;27.70;46.60;;;;;;5149395;27;45302;-71
2023/08/12 00:27:09;;;;;;;2.13;1.80;;;27.70;46.70;;;;;;5149552;27;45213;-71
2023/08/12 00:29:36;;;;;;;1.88;1.70;;;27.70;46.80;;;;;;5149733;27;45408;-70
2023/08/12 00:32:03;;;;;;;1.98;1.70;;;27.70;46.80;;;;;;5149930;27;45256;-70
2023/08/12 00:34:32;;;;;;;1.60;1.50;;;27.70;46.80;;;;;;5149173;27;46616;-70
2023/08/12 00:36:58;;;;;;;1.90;1.73;;;27.70;46.80;;;;;;5149675;27;45252;-71
2023/08/12 00:39:26;;;;;;;3.60;1.83;;;27.60;47.40;;;;;;5149607;27;45263;-71
2023/08/12 00:41:53;;;;;;;1.90;1.75;;;27.60;46.70;;;;;;5149668;27;45512;-71
2023/08/12 00:44:20;;;;;;;1.98;1.73;;;27.60;46.80;;;;;;5148851;27;46580;-72
2023/08/12 00:46:46;;;;;;;1.80;1.70;;;27.60;46.80;;;;;;5149241;27;45399;-71
2023/08/12 00:49:13;;;;;;;1.60;1.50;;;27.60;46.90;;;;;;5149322;27;45243;-70
2023/08/12 00:51:42;;;;;;;2.10;1.65;;;27.60;46.90;;;;;;5149609;27;45490;-71
2023/08/12 00:54:09;;;;;;;2.17;1.60;;;27.60;46.80;;;;;;5148806;27;46450;-71
2023/08/12 00:56:37;;;;;;;2.08;1.77;;;27.50;46.80;;;;;;5148770;27;45411;-70
2023/08/12 00:59:04;;;;;;;2.10;1.90;;;27.60;46.80;;;;;;5148958;27;45265;-70
2023/08/12 01:01:31;;;;;;;2.00;1.80;;;27.50;46.80;;;;;;5149462;27;45353;-71
2023/08/12 01:03:58;;;;;;;1.80;1.70;;;27.50;46.80;;;;;;5148745;27;46411;-71
2023/08/12 01:06:25;;;;;;;1.83;1.73;;;27.50;46.90;;;;;;5148997;27;45436;-71
2023/08/12 01:08:53;;;;;;;1.80;1.70;;;27.50;47.00;;;;;;5148994;27;45409;-71
2023/08/12 01:11:22;;;;;;;1.75;1.65;;;27.50;46.90;;;;;;5149022;27;45608;-70
2023/08/12 01:13:53;;;;;;;1.92;1.67;;;27.50;46.90;;;;;;5148733;27;45615;-71
2023/08/12 01:16:20;;;;;;;2.28;2.10;;;27.50;47.00;;;;;;5148685;27;45261;-70
2023/08/12 01:18:46;;;;;;;1.70;1.60;;;27.50;47.00;;;;;;5148885;27;45310;-70
2023/08/12 01:21:16;;;;;;;6.35;1.90;;;27.40;47.00;;;;;;5149019;27;45272;-70
2023/08/12 01:23:44;;;;;;;1.98;1.75;;;27.40;47.00;;;;;;5148215;27;45372;-71
2023/08/12 01:26:11;;;;;;;1.50;1.40;;;27.40;47.00;;;;;;5148498;27;45261;-70
2023/08/12 01:28:38;;;;;;;1.65;1.55;;;27.40;47.00;;;;;;5148554;27;45185;-71
2023/08/12 01:31:06;;;;;;;2.20;1.70;;;27.40;47.00;;;;;;5149316;27;45316;-71
2023/08/12 01:33:42;;;;;;;2.10;1.60;;;27.40;47.10;;;;;;5148317;27;46667;-71
2023/08/12 01:36:10;;;;;;;1.92;1.83;;;27.40;47.00;;;;;;5148641;27;45265;-71
2023/08/12 01:38:37;;;;;;;1.88;1.77;;;27.40;47.10;;;;;;5148611;27;45279;-70
2023/08/12 01:41:05;;;;;;;1.70;1.60;;;27.40;47.10;;;;;;5148606;27;45403;-70
2023/08/12 01:43:33;;;;;;;3.83;1.55;;;27.40;47.20;;;;;;5148180;27;46604;-71
2023/08/12 01:46:00;;;;;;;2.30;1.85;;;27.40;47.20;;;;;;5148268;27;45356;-71
2023/08/12 01:48:26;;;;;;;1.90;1.80;;;27.40;47.20;;;;;;5147801;27;45341;-70
2023/08/12 01:50:53;;;;;;;1.60;1.50;;;27.40;47.30;;;;;;5148405;27;45309;-70
2023/08/12 01:53:20;;;;;;;1.88;1.73;;;27.30;47.30;;;;;;5148055;27;48693;-70
2023/08/12 01:55:48;;;;;;;1.80;1.70;;;27.30;47.30;;;;;;5148152;27;45359;-70
2023/08/12 01:58:16;;;;;;;1.65;1.55;;;27.30;47.30;;;;;;5148221;27;45310;-70
2023/08/12 02:00:43;;;;;;;2.72;1.98;;;27.30;47.40;;;;;;5148334;27;45419;-71
2023/08/12 02:03:10;;;;;;;1.88;1.77;;;27.30;47.40;;;;;;5148048;27;45408;-70
2023/08/12 02:05:37;;;;;;;1.50;1.40;;;27.30;47.50;;;;;;5148017;27;45352;-71
2023/08/12 02:08:05;;;;;;;1.60;1.50;;;27.20;47.50;;;;;;5147990;27;45314;-71
2023/08/12 02:10:32;;;;;;;3.10;1.73;;;27.30;47.60;;;;;;5148592;27;45310;-70
2023/08/12 02:12:58;;;;;;;2.17;1.98;;;27.20;47.50;;;;;;5147673;27;46371;-70
2023/08/12 02:15:26;;;;;;;2.00;1.60;;;27.30;47.50;;;;;;5147673;27;45377;-70
2023/08/12 02:17:53;;;;;;;1.83;1.73;;;27.20;47.50;;;;;;5148091;27;45337;-72
2023/08/12 02:20:20;;;;;;;1.83;1.67;;;27.20;47.50;;;;;;5148107;27;45278;-71
2023/08/12 02:22:47;;;;;;;1.55;1.45;;;27.20;47.50;;;;;;5147840;27;45502;-71
2023/08/12 02:25:14;;;;;;;1.92;1.60;;;27.20;47.50;;;;;;5147687;27;45270;-71
2023/08/12 02:27:41;;;;;;;1.88;1.73;;;27.20;47.50;;;;;;5147793;27;45407;-70
2023/08/12 02:30:08;;;;;;;1.80;1.70;;;27.20;47.60;;;;;;5147943;27;45356;-70
2023/08/12 02:32:36;;;;;;;2.10;1.63;;;27.20;47.60;;;;;;5147535;27;45318;-71
2023/08/12 02:35:03;;;;;;;1.70;1.60;;;27.10;47.50;;;;;;5149381;27;45393;-71
2023/08/12 02:37:30;;;;;;;1.85;1.52;;;27.10;47.50;;;;;;5151427;27;45332;-70
2023/08/12 02:39:57;;;;;;;1.60;1.50;;;27.10;47.60;;;;;;5151862;27;45366;-70
2023/08/12 02:42:24;;;;;;;1.88;1.77;;;27.10;47.70;;;;;;5151208;27;45646;-70
2023/08/12 02:44:51;;;;;;;1.85;1.73;;;27.10;47.70;;;;;;5151019;27;45282;-70
2023/08/12 02:47:18;;;;;;;3.28;1.63;;;27.10;47.70;;;;;;5151071;27;45279;-70
2023/08/12 02:49:47;;;;;;;2.13;1.80;;;27.10;47.70;;;;;;5151586;27;45486;-70
2023/08/12 02:52:14;;;;;;;1.60;1.50;;;27.00;47.70;;;;;;5150987;27;46602;-70
2023/08/12 02:54:41;;;;;;;1.80;1.70;;;27.00;47.70;;;;;;5150730;27;45214;-70
2023/08/12 02:57:07;;;;;;;1.67;1.58;;;27.10;47.90;;;;;;5151020;27;45211;-70
2023/08/12 02:59:34;;;;;;;1.83;1.67;;;27.00;47.80;;;;;;5151167;27;45369;-70
2023/08/12 03:02:06;;;;;;;2.00;1.90;;;27.00;47.80;;;;;;5150718;27;45476;-71
2023/08/12 03:04:34;;;;;;;2.08;1.35;;;27.00;47.80;;;;;;5150613;27;45412;-70
2023/08/12 03:07:02;;;;;;;1.70;1.60;;;27.00;47.80;;;;;;5151301;27;45389;-70
2023/08/12 03:09:29;;;;;;;1.60;1.50;;;27.00;47.90;;;;;;5151095;27;45250;-70
2023/08/12 03:11:56;;;;;;;1.50;1.40;;;27.00;47.90;;;;;;5150730;27;46421;-70
2023/08/12 03:14:23;;;;;;;1.83;1.65;;;27.00;47.90;;;;;;5150533;27;45264;-70
2023/08/12 03:16:50;;;;;;;1.52;1.40;;;27.00;47.90;;;;;;5150941;27;45480;-71
2023/08/12 03:19:16;;;;;;;2.17;1.98;;;26.90;48.60;;;;;;5150545;27;45481;-71
2023/08/12 03:21:43;;;;;;;2.30;1.60;;;26.90;47.90;;;;;;5150132;27;45430;-70
2023/08/12 03:24:11;;;;;;;1.70;1.60;;;26.90;47.90;;;;;;5150376;27;45278;-70
2023/08/12 03:26:38;;;;;;;1.70;1.60;;;26.90;47.90;;;;;;5150660;27;45353;-70
2023/08/12 03:29:05;;;;;;;1.50;1.40;;;26.90;48.00;;;;;;5150357;27;45431;-70
2023/08/12 03:31:32;;;;;;;1.42;1.33;;;26.90;48.00;;;;;;5150004;27;46399;-70
2023/08/12 03:33:59;;;;;;;1.58;1.48;;;26.90;48.10;;;;;;5150223;27;45413;-70
2023/08/12 03:36:26;;;;;;;2.00;1.75;;;26.80;47.90;;;;;;5150273;27;45347;-70
2023/08/12 03:38:52;;;;;;;1.65;1.40;;;26.80;48.00;;;;;;5150885;27;45277;-70
2023/08/12 03:41:21;;;;;;;1.63;1.50;;;26.80;48.00;;;;;;5149973;27;45334;-70
2023/08/12 03:43:47;;;;;;;1.60;1.50;;;26.80;48.00;;;;;;5147216;27;45330;-70
2023/08/12 03:46:14;;;;;;;1.50;1.40;;;26.80;48.00;;;;;;5149779;27;45343;-70
2023/08/12 03:48:41;;;;;;;1.38;1.27;;;26.80;48.00;;;;;;5150177;27;45314;-71
2023/08/12 03:51:08;;;;;;;1.95;1.77;;;26.80;48.00;;;;;;5149817;27;45764;-70
2023/08/12 03:53:35;;;;;;;1.70;1.60;;;26.80;48.10;;;;;;5149648;27;45479;-70
2023/08/12 03:56:02;;;;;;;1.50;1.40;;;26.80;48.00;;;;;;5150022;27;45365;-72
2023/08/12 03:58:30;;;;;;;1.67;1.55;;;26.80;48.10;;;;;;5150209;27;45422;-71
2023/08/12 04:00:56;;;;;;;1.52;1.42;;;26.80;48.10;;;;;;5149754;27;45310;-70
2023/08/12 04:03:23;;;;;;;1.38;1.27;;;26.80;48.20;;;;;;5149810;27;45322;-71
2023/08/12 04:05:51;;;;;;;2.17;1.80;;;26.70;48.10;;;;;;5149635;27;45351;-70
2023/08/12 04:08:19;;;;;;;1.60;1.50;;;26.70;48.10;;;;;;5149649;27;45379;-71
2023/08/12 04:10:47;;;;;;;1.60;1.50;;;26.70;48.10;;;;;;5149602;27;46281;-69
2023/08/12 04:13:14;;;;;;;1.63;1.50;;;26.70;48.10;;;;;;5149380;27;45321;-70
2023/08/12 04:15:42;;;;;;;1.95;1.20;;;26.70;48.20;;;;;;5149584;27;45388;-70
2023/08/12 04:18:09;;;;;;;1.95;1.55;;;26.70;48.20;;;;;;5149763;27;45430;-71
2023/08/12 04:20:36;;;;;;;1.98;1.75;;;26.60;48.10;;;;;;5149294;27;47286;-72
2023/08/12 04:23:03;;;;;;;1.70;1.60;;;26.60;48.20;;;;;;5149364;27;45338;-70
2023/08/12 04:25:29;;;;;;;1.88;1.75;;;26.60;48.20;;;;;;5149229;27;45360;-72
2023/08/12 04:27:56;;;;;;;1.63;1.52;;;26.60;48.20;;;;;;5149659;27;45431;-70
2023/08/12 04:30:23;;;;;;;1.67;1.58;;;26.60;48.20;;;;;;5149232;27;46785;-70
2023/08/12 04:32:51;;;;;;;1.48;1.38;;;26.60;48.10;;;;;;5149236;27;45360;-71
2023/08/12 04:35:18;;;;;;;1.45;1.35;;;26.60;48.20;;;;;;5149323;27;45271;-71
2023/08/12 04:37:45;;;;;;;1.38;1.27;;;26.60;48.20;;;;;;5149663;27;45314;-70
2023/08/12 04:40:12;;;;;;;1.77;1.67;;;26.60;48.20;;;;;;5149257;27;46436;-70
2023/08/12 04:42:39;;;;;;;1.42;1.33;;;26.60;48.20;;;;;;5148969;27;45377;-71
2023/08/12 04:45:06;;;;;;;1.73;1.42;;;26.50;48.10;;;;;;5149245;27;45318;-70
2023/08/12 04:47:33;;;;;;;1.50;1.40;;;26.60;48.10;;;;;;5149205;27;45311;-70
2023/08/12 04:50:02;;;;;;;4.13;1.40;;;26.60;48.20;;;;;;5148532;27;45513;-70
2023/08/12 04:52:28;;;;;;;1.98;1.25;;;26.60;48.20;;;;;;5148740;27;45303;-70
2023/08/12 04:54:55;;;;;;;1.50;1.40;;;26.50;48.10;;;;;;5148798;27;45293;-70
2023/08/12 04:57:22;;;;;;;1.58;1.48;;;26.50;48.10;;;;;;5148329;27;45302;-70
2023/08/12 04:59:49;;;;;;;1.70;1.50;;;26.60;48.20;;;;;;5148813;27;46397;-71
2023/08/12 05:02:21;;;;;;;1.48;1.38;;;26.50;48.10;;;;;;5148829;27;45392;-70
2023/08/12 05:04:49;;;;;;;2.75;1.60;;;26.50;48.10;;;;;;5148858;27;45322;-70
2023/08/12 05:07:17;;;;;;;1.30;1.20;;;26.50;48.10;;;;;;5148943;27;45446;-72
2023/08/12 05:09:44;;;;;;;2.00;1.50;;;26.50;48.20;;;;;;5148446;27;45448;-71
2023/08/12 05:12:11;;;;;;;1.40;1.30;;;26.50;48.20;;;;;;5149009;27;45247;-70
2023/08/12 05:14:38;;;;;;;1.23;1.15;;;26.50;48.20;;;;;;5148609;27;45265;-70
2023/08/12 05:17:05;;;;;;;1.48;1.30;;;26.50;48.20;;;;;;5148961;27;45395;-70
2023/08/12 05:19:32;;;;;;;1.67;1.50;;;26.50;48.20;;;;;;5148392;27;46632;-69
2023/08/12 05:21:58;;;;;;;1.30;1.20;;;26.50;48.20;;;;;;5148422;27;45340;-70
2023/08/12 05:24:26;;;;;;;1.80;1.30;;;26.50;48.20;;;;;;5148577;27;45403;-70
2023/08/12 05:26:53;;;;;;;1.58;1.48;;;26.50;48.30;;;;;;5148587;27;45345;-70
2023/08/12 05:29:20;;;;;;;1.50;1.40;;;26.50;48.30;;;;;;5148187;27;45248;-70
2023/08/12 05:31:47;;;;;;;1.63;1.40;;;26.50;48.20;;;;;;5148216;27;45324;-70
2023/08/12 05:34:14;;;;;;;1.60;1.50;;;26.50;48.30;;;;;;5148806;27;45339;-71
2023/08/12 05:36:41;;;;;;;1.50;1.40;;;26.50;48.30;;;;;;5148206;27;45275;-70
2023/08/12 05:39:07;;;;;;;1.90;1.50;;;26.50;48.30;;;;;;5148189;27;45150;-71
2023/08/12 05:41:36;;;;;;;1.50;1.40;;;26.50;48.30;;;;;;5148141;27;45322;-71
2023/08/12 05:44:02;;;;;;;1.52;1.42;;;26.50;48.30;;;;;;5148137;27;45392;-70
2023/08/12 05:46:29;;;;;;;1.60;1.50;;;26.50;48.30;;;;;;5148471;27;45466;-70
2023/08/12 05:48:56;;;;;;;1.30;1.20;;;26.50;48.30;;;;;;5147927;27;45454;-70
2023/08/12 05:51:23;;;;;;;1.58;1.48;;;26.50;48.30;;;;;;5148220;27;45191;-71
2023/08/12 05:53:50;;;;;;;1.85;1.73;;;26.50;48.40;;;;;;5147785;27;45252;-71
2023/08/12 05:56:16;;;;;;;2.25;1.40;;;26.50;48.50;;;;;;5148093;27;45477;-70
2023/08/12 05:58:44;;;;;;;1.65;1.55;;;26.50;48.50;;;;;;5148200;27;45558;-70
2023/08/12 06:01:11;;;;;;;1.60;1.50;;;26.50;48.40;;;;;;5148081;27;45158;-70
2023/08/12 06:03:38;;;;;;;1.45;1.30;;;26.50;48.50;;;;;;5148094;27;45176;-71
2023/08/12 06:06:05;;;;;;;1.73;1.58;;;26.50;48.40;;;;;;5148288;27;45162;-70
2023/08/12 06:08:32;;;;;;;1.40;1.30;;;26.50;48.50;;;;;;5149091;27;46381;-70
2023/08/12 06:10:59;;;;;;;1.40;1.30;;;26.50;48.40;;;;;;5151353;27;45378;-70
2023/08/12 06:13:25;;;;;;;1.55;1.38;;;26.50;48.60;;;;;;5151516;27;45545;-71
2023/08/12 06:15:54;;;;;;;2.25;1.65;;;26.50;48.60;;;;;;5151748;27;45280;-70
2023/08/12 06:18:20;;;;;;;1.75;1.30;;;26.50;48.40;;;;;;5151202;27;45327;-70
2023/08/12 06:20:47;;;;;;;1.40;1.30;;;26.50;48.60;;;;;;5151036;27;45347;-70
2023/08/12 06:23:14;;;;;;;1.50;1.40;;;26.50;48.50;;;;;;5151147;27;45357;-70
2023/08/12 06:25:42;;;;;;;1.65;1.30;;;26.50;48.50;;;;;;5151666;27;45384;-70
2023/08/12 06:28:10;;;;;;;1.70;1.60;;;26.50;48.50;;;;;;5151105;27;45244;-71
2023/08/12 06:30:36;;;;;;;1.50;1.40;;;26.50;48.50;;;;;;5150903;27;45323;-70
2023/08/12 06:33:05;;;;;;;1.92;1.80;;;26.50;48.30;;;;;;5151324;27;45351;-71
2023/08/12 06:35:32;;;;;;;1.27;1.17;;;26.50;48.20;;;;;;5151513;27;45410;-70
2023/08/12 06:37:59;;;;;;;1.52;1.42;;;26.50;48.20;;;;;;5150927;27;46258;-71
2023/08/12 06:40:26;;;;;;;1.52;1.42;;;26.60;48.20;;;;;;5150958;27;45354;-70
2023/08/12 06:42:53;;;;;;;1.48;1.38;;;26.60;48.10;;;;;;5151124;27;45391;-70
2023/08/12 06:45:20;;;;;;;1.42;1.33;;;26.60;48.20;;;;;;5151132;27;45346;-70
2023/08/12 06:47:47;;;;;;;1.63;1.48;;;26.60;48.20;;;;;;5150871;27;46742;-70
2023/08/12 06:50:15;;;;;;;1.85;1.40;;;26.60;48.10;;;;;;5150715;27;45354;-70
2023/08/12 06:52:42;;;;;;;1.42;1.25;;;26.60;48.10;;;;;;5151128;27;45256;-70
2023/08/12 06:55:09;;;;;;;1.50;1.40;;;26.60;48.10;;;;;;5150255;27;45474;-70
2023/08/12 06:57:36;;;;;;;2.60;1.70;;;26.60;48.00;;;;;;5149813;27;45468;-70
2023/08/12 07:00:03;;;;;;;7.10;1.42;;;26.60;48.40;;;;;;5149993;27;45274;-70
2023/08/12 07:02:33;;;;;;;2.05;1.70;;;26.60;48.90;;;;;;5150242;27;45507;-69
2023/08/12 07:05:00;;;;;;;1.80;1.55;;;26.60;49.70;;;;;;5144308;27;45636;-70
2023/08/12 07:07:28;;;;;;;1.90;1.45;;;26.60;49.80;;;;;;5149990;27;45279;-70
2023/08/12 07:09:55;;;;;;;2.05;1.52;;;26.70;49.80;;;;;;5150173;27;45265;-69
2023/08/12 07:12:22;;;;;;;3.42;1.70;;;26.70;49.90;;;;;;5150347;27;45150;-70
2023/08/12 07:14:48;;;;;;;1.95;1.42;;;26.70;50.00;;;;;;5150363;27;45389;-70
2023/08/12 07:17:15;;;;;;;3.38;1.80;;;26.70;50.10;;;;;;5150185;27;47376;-70
2023/08/12 07:19:42;;;;;;;3.22;2.20;;;26.70;50.60;;;;;;5152075;27;45407;-70
2023/08/12 07:22:09;;;;;;;3.40;1.88;;;26.70;50.70;;;;;;5153330;27;45213;-70
2023/08/12 07:24:37;;;;;;;3.78;1.88;;;26.70;50.90;;;;;;5158508;27;45435;-71
2023/08/12 07:27:04;;;;;;;1.77;1.67;;;26.70;50.80;;;;;;5171392;27;46399;-69
2023/08/12 07:29:31;;;;;;;2.47;1.60;;;26.80;51.00;;;;;;5171366;27;45342;-70
2023/08/12 07:31:58;;;;;;;3.03;1.65;;;26.80;50.80;;;;;;5171300;27;45258;-69
2023/08/12 07:34:24;;;;;;;3.40;1.95;;;26.80;50.70;;;;;;5171167;27;45570;-70
2023/08/12 07:36:51;;;;;;;1.77;1.67;;;26.80;51.20;;;;;;5171195;27;45412;-69
2023/08/12 07:39:18;;;;;;;2.05;1.85;;;26.80;51.30;;;;;;5163200;27;45331;-70
2023/08/12 07:41:46;;;;;;;2.42;2.00;;;26.80;51.10;;;;;;5150313;27;45310;-69
2023/08/12 07:44:13;;;;;;;2.13;1.92;;;26.90;51.30;;;;;;5150242;27;45365;-69
2023/08/12 07:46:40;;;;;;;1.98;1.63;;;26.80;51.30;;;;;;5149820;27;46628;-70
2023/08/12 07:49:07;;;;;;;2.97;1.90;;;26.80;51.80;;;;;;5163603;27;45336;-70
2023/08/12 07:51:34;;;;;;;2.78;1.77;;;26.90;51.30;;;;;;5176897;27;45344;-77
2023/08/12 07:54:01;;;;;;;2.05;1.65;;;26.90;51.60;;;;;;5174333;27;45357;-74
2023/08/12 07:56:27;;;;;;;1.90;1.73;;;26.90;52.10;;;;;;5176399;27;47549;-77
2023/08/12 07:58:56;;;;;;;2.50;1.88;;;26.90;52.10;;;;;;5170928;27;45195;-77
2023/08/12 08:01:22;;;;;;;1.90;1.70;;;26.90;52.30;;;;;;5173591;27;45155;-69
2023/08/12 08:03:49;;;;;;;2.72;2.33;;;27.00;52.50;;;;;;5173105;27;45424;-69
2023/08/12 08:06:16;;;;;;;2.20;2.00;;;27.00;53.60;;;;;;5168173;27;45327;-70
2023/08/12 08:08:43;;;;;;;3.42;1.95;;;27.00;53.30;;;;;;5170489;27;45444;-70
2023/08/12 08:11:10;;;;;;;3.08;1.90;;;27.00;52.80;;;;;;5170801;27;45186;-69
2023/08/12 08:13:37;;;;;;;3.53;1.90;;;27.10;53.40;;;;;;5170902;27;45514;-70
2023/08/12 08:16:05;;;;;;;3.72;2.13;;;27.00;53.80;;;;;;5170470;27;46410;-69
2023/08/12 08:18:32;;;;;;;4.70;2.20;;;27.00;55.00;;;;;;5170718;27;45294;-69
2023/08/12 08:20:59;;;;;;;4.70;1.75;;;27.00;55.10;;;;;;5169685;27;45293;-69
2023/08/12 08:23:26;;;;;;;3.85;2.10;;;27.00;55.60;;;;;;5149880;27;45132;-70
2023/08/12 08:25:52;;;;;;;3.15;2.03;;;27.00;56.30;;;;;;5149455;27;46657;-70
2023/08/12 08:28:19;;;;;;;2.50;2.10;;;27.00;57.00;;;;;;5149658;27;45441;-70
2023/08/12 08:30:46;;;;;;;1.80;1.70;;;26.90;58.00;;;;;;5149489;27;45446;-70
2023/08/12 08:33:14;;;;;;;2.05;1.95;;;26.90;57.10;;;;;;5148297;27;45484;-69
2023/08/12 08:35:41;;;;;;;3.15;2.15;;;26.80;57.60;;;;;;5148676;27;45455;-70
2023/08/12 08:38:08;;;;;;;3.97;2.10;;;26.80;57.70;;;;;;5160907;27;45322;-69
2023/08/12 08:40:34;;;;;;;3.53;1.83;;;26.80;57.50;;;;;;5170342;27;45421;-70
2023/08/12 08:43:03;;;;;;;2.50;2.20;;;26.80;57.70;;;;;;5170485;27;45469;-69
2023/08/12 08:45:30;;;;;;;3.33;2.10;;;26.80;57.70;;;;;;5170041;27;45443;-69
2023/08/12 08:47:57;;;;;;;4.57;2.42;;;26.80;58.00;;;;;;5170014;27;45313;-70
2023/08/12 08:50:25;;;;;;;3.25;2.30;;;26.80;58.30;;;;;;5170271;27;45472;-69
2023/08/12 08:52:52;;;;;;;4.93;2.28;;;26.80;57.90;;;;;;5170306;27;45382;-69
2023/08/12 08:55:19;;;;;;;2.42;1.92;;;26.80;57.90;;;;;;5169333;27;47713;-69
2023/08/12 08:57:46;;;;;;;4.38;2.20;;;26.90;57.90;;;;;;5169911;27;45369;-70
2023/08/12 09:00:14;;;;;;;2.88;2.22;;;26.90;57.60;;;;;;5170127;27;45273;-70
2023/08/12 09:02:41;;;;;;;3.08;2.03;;;26.90;57.20;;;;;;5170157;27;45475;-71
2023/08/12 09:05:08;;;;;;;2.20;2.00;;;26.90;57.10;;;;;;5169529;27;46591;-70
2023/08/12 09:07:37;;;;;;;1.98;1.83;;;26.90;56.80;;;;;;5169904;27;45150;-70
2023/08/12 09:10:05;;;;;;;2.70;2.00;;;26.90;56.60;;;;;;5160373;27;45262;-70
2023/08/12 09:12:32;;;;;;;3.15;1.95;;;26.90;56.50;;;;;;5155950;27;45421;-70
2023/08/12 09:14:59;;;;;;;2.95;2.10;;;26.90;56.50;;;;;;5151041;27;45296;-70
2023/08/12 09:17:26;;;;;;;5.25;1.98;;;26.90;56.90;;;;;;5148614;27;45990;-70
2023/08/12 09:19:52;;;;;;;2.85;2.10;;;26.90;57.20;;;;;;5151317;27;45192;-70
2023/08/12 09:22:19;;;;;;;2.17;1.92;;;26.90;57.50;;;;;;5157188;27;45407;-70
2023/08/12 09:24:48;;;;;;;3.13;2.17;;;26.90;57.90;;;;;;5160571;27;46753;-70
2023/08/12 09:27:17;;;;;;;7.22;3.75;;;26.90;58.30;;;;;;5169327;27;45315;-70
2023/08/12 09:29:44;;;;;;;4.07;2.35;;;26.90;58.90;;;;;;5169527;27;45249;-70
2023/08/12 09:32:11;;;;;;;3.25;2.00;;;26.90;58.70;;;;;;5169746;27;45391;-70
2023/08/12 09:34:38;;;;;;;3.42;2.30;;;26.90;58.80;;;;;;5169318;27;45722;-70
2023/08/12 09:37:05;;;;;;;3.20;2.00;;;26.90;59.10;;;;;;5169323;27;46109;-70
2023/08/12 09:39:33;;;;;;;3.17;2.35;;;26.90;60.10;;;;;;5169759;27;45189;-71
2023/08/12 09:42:01;;;;;;;5.05;2.50;;;26.90;59.60;;;;;;5169758;27;45598;-71
2023/08/12 09:44:28;;;;;;;2.95;2.45;;;27.00;59.50;;;;;;5168885;27;45429;-70
2023/08/12 09:46:58;;;;;;;3.15;2.45;;;27.00;59.00;;;;;;5144333;27;45357;-70
2023/08/12 09:49:25;;;;;;;4.53;2.42;;;27.10;58.70;;;;;;5137558;27;45341;-70
2023/08/12 09:51:52;;;;;;;2.97;2.20;;;27.10;58.30;;;;;;5146461;27;45430;-71
2023/08/12 09:54:19;;;;;;;3.95;2.35;;;27.10;58.00;;;;;;5147299;27;45465;-71
2023/08/12 09:56:48;;;;;;;2.97;2.40;;;27.10;59.30;;;;;;5158469;27;45350;-72
2023/08/12 09:59:16;;;;;;;3.05;2.22;;;27.20;59.10;;;;;;5168269;27;45320;-71
2023/08/12 10:01:43;;;;;;;2.25;2.05;;;27.20;58.80;;;;;;5169604;27;45312;-71
2023/08/12 10:04:12;;;;;;;6.95;2.20;;;27.20;58.20;;;;;;5168973;27;45278;-71
2023/08/12 10:06:39;;;;;;;4.00;2.10;;;27.30;58.20;;;;;;5169333;27;45375;-70
2023/08/12 10:09:07;;;;;;;3.95;2.10;;;27.30;59.70;;;;;;5168708;27;45385;-71
2023/08/12 10:11:34;;;;;;;2.60;1.83;;;27.40;59.00;;;;;;5168888;27;45333;-71
2023/08/12 10:14:01;;;;;;;3.50;2.08;;;27.40;58.10;;;;;;5168978;27;46541;-70
2023/08/12 10:16:29;;;;;;;4.50;1.98;;;27.50;57.50;;;;;;5162003;27;45164;-71
2023/08/12 10:18:56;;;;;;;2.25;1.88;;;27.50;57.20;;;;;;5148293;27;45354;-71
2023/08/12 10:21:23;;;;;;;1.80;1.70;;;27.60;57.20;;;;;;5148322;27;45316;-71
2023/08/12 10:23:51;;;;;;;3.65;2.30;;;27.60;57.40;;;;;;5147744;27;46402;-72
2023/08/12 10:26:18;;;;;;;2.10;1.70;;;27.60;57.80;;;;;;5145611;27;45326;-72
2023/08/12 10:28:45;;;;;;;3.70;2.22;;;27.70;57.50;;;;;;5148387;27;45295;-70
2023/08/12 10:31:12;;;;;;;2.95;2.22;;;27.70;58.00;;;;;;5147877;27;45495;-70
2023/08/12 10:33:40;;;;;;;2.78;2.00;;;27.80;57.70;;;;;;5144717;27;46714;-71
2023/08/12 10:36:07;;;;;;;1.83;1.73;;;27.80;57.60;;;;;;5144518;27;45295;-70
2023/08/12 10:38:34;;;;;;;1.85;1.75;;;27.90;58.00;;;;;;5130539;27;45276;-71
2023/08/12 10:41:19;;;;;;;2.83;2.25;;;27.90;57.80;;;;;;5138883;27;45460;-70
2023/08/12 10:43:55;;;;;;;2.85;2.05;;;27.90;57.80;;;;;;5146166;27;46393;-70
2023/08/12 10:46:23;;;;;;;4.00;2.20;;;28.00;57.40;;;;;;5144566;27;45459;-70
2023/08/12 10:49:05;;;;;;;2.90;2.10;;;28.00;57.60;;;;;;5147671;27;45430;-70
2023/08/12 10:51:45;;;;;;;3.63;1.92;;;28.00;57.50;;;;;;5144136;27;45471;-70
2023/08/12 10:54:15;;;;;;;3.30;2.13;;;28.10;57.20;;;;;;5139088;27;45399;-70
2023/08/12 10:57:07;;;;;;;3.35;2.25;;;28.10;57.10;;;;;;5145896;27;45284;-69
2023/08/12 10:59:54;;;;;;;2.65;2.13;;;28.10;57.30;;;;;;5151428;27;45238;-70
2023/08/12 11:02:23;;;;;;;2.40;2.20;;;28.20;57.70;;;;;;5151619;27;45476;-70
2023/08/12 11:04:52;;;;;;;2.45;1.80;;;28.20;57.70;;;;;;5150778;27;48800;-70
2023/08/12 11:07:20;;;;;;;2.30;2.05;;;28.20;57.60;;;;;;5151090;27;45223;-70
2023/08/12 11:09:48;;;;;;;3.67;2.30;;;28.20;57.70;;;;;;5150957;27;45495;-70
2023/08/12 11:12:18;;;;;;;2.38;1.83;;;28.20;57.70;;;;;;5150419;27;45364;-70
2023/08/12 11:14:49;;;;;;;2.25;2.05;;;28.20;57.60;;;;;;5150574;27;45293;-70
2023/08/12 11:17:16;;;;;;;4.68;2.17;;;28.10;57.50;;;;;;5150767;27;45276;-72
2023/08/12 11:19:43;;;;;;;4.45;2.15;;;28.10;57.40;;;;;;5150814;27;45310;-71
2023/08/12 11:22:12;;;;;;;2.20;2.00;;;28.10;57.70;;;;;;5169743;27;45489;-71
2023/08/12 11:24:41;;;;;;;3.10;2.10;;;28.10;57.20;;;;;;5171586;27;46664;-71
2023/08/12 11:27:10;;;;;;;5.32;2.40;;;28.10;58.10;;;;;;5171849;27;45192;-70
2023/08/12 11:29:38;;;;;;;4.28;2.03;;;28.00;56.70;;;;;;5171337;27;45292;-71
2023/08/12 11:32:06;;;;;;;5.38;2.42;;;28.00;57.20;;;;;;5171450;27;45326;-71
2023/08/12 11:34:33;;;;;;;6.03;2.40;;;27.90;56.80;;;;;;5150402;27;46671;-71
2023/08/12 11:37:00;;;;;;;3.13;2.10;;;27.90;57.60;;;;;;5150865;27;45275;-71
2023/08/12 11:39:29;;;;;;;4.30;2.13;;;27.80;58.60;;;;;;5150661;27;45337;-71
2023/08/12 11:41:57;;;;;;;3.08;2.08;;;27.80;58.90;;;;;;5135897;27;45384;-72
2023/08/12 11:44:24;;;;;;;3.45;2.60;;;27.70;60.20;;;;;;5129292;27;47437;-72
2023/08/12 11:46:51;;;;;;;4.75;2.03;;;27.70;60.10;;;;;;5129337;27;45256;-71
2023/08/12 11:49:18;;;;;;;5.97;2.25;;;27.70;60.50;;;;;;5143889;27;45315;-71
2023/08/12 11:51:45;;;;;;;5.65;2.50;;;27.70;61.10;;;;;;5150314;27;45347;-72
2023/08/12 11:54:12;;;;;;;4.70;2.45;;;27.70;61.30;;;;;;5149537;27;46519;-70
2023/08/12 11:56:40;;;;;;;4.20;2.80;;;27.70;61.90;;;;;;5137387;27;45333;-71
2023/08/12 11:59:07;;;;;;;3.33;2.40;;;27.80;62.50;;;;;;5158604;27;45289;-71
2023/08/12 12:01:34;;;;;;;4.68;2.00;;;27.90;61.70;;;;;;5151638;27;45465;-74
2023/08/12 12:04:01;;;;;;;3.25;2.30;;;28.00;61.60;;;;;;5134337;27;45332;-72
2023/08/12 12:06:32;;;;;;;4.30;2.60;;;28.00;62.20;;;;;;5130629;27;45288;-71
2023/08/12 12:09:04;;;;;;;5.13;3.05;;;28.00;63.60;;;;;;5149721;27;45369;-70
2023/08/12 12:11:31;;;;;;;5.78;3.72;;;28.00;63.00;;;;;;5137873;27;45417;-71
2023/08/12 12:14:02;;;;;;;4.38;3.55;;;28.00;61.80;;;;;;5143899;27;46141;-71
2023/08/12 12:16:40;;;;;;;7.93;3.17;;;28.00;62.10;;;;;;5146818;27;45507;-70
2023/08/12 12:19:09;;;;;;;4.97;2.83;;;28.00;63.30;;;;;;5149654;27;45326;-71
2023/08/12 12:21:41;;;;;;;6.40;2.85;;;28.00;62.50;;;;;;5137961;27;45379;-71
2023/08/12 12:24:08;;;;;;;3.88;2.67;;;28.10;62.70;;;;;;5145494;27;45496;-72
2023/08/12 12:26:35;;;;;;;4.05;2.80;;;28.20;63.00;;;;;;5130376;27;45435;-70
2023/08/12 12:29:04;;;;;;;3.33;2.40;;;28.20;62.60;;;;;;5134312;27;45466;-70
2023/08/12 12:31:32;;;;;;;3.72;2.40;;;28.20;63.90;;;;;;5149820;27;45244;-70
2023/08/12 12:33:59;;;;;;;3.45;2.30;;;28.20;64.00;;;;;;5148887;27;45445;-71
2023/08/12 12:36:25;;;;;;;4.07;2.38;;;28.20;64.80;;;;;;5149335;27;45286;-71
2023/08/12 12:38:52;;;;;;;6.60;2.70;;;28.30;63.70;;;;;;5142886;27;45278;-71
2023/08/12 12:41:19;;;;;;;4.72;2.70;;;28.50;62.90;;;;;;5137515;27;45374;-71
2023/08/12 12:43:46;;;;;;;2.85;1.95;;;28.60;63.10;;;;;;5128455;27;47237;-70
2023/08/12 12:46:14;;;;;;;3.50;2.42;;;28.70;61.00;;;;;;5148017;27;45254;-71
2023/08/12 12:48:41;;;;;;;3.55;2.58;;;28.90;59.80;;;;;;5149488;27;45298;-71